createdAt,value
2022-12-18T00:00:12.106Z,49.00
2022-12-18T00:05:11.455Z,43.60
2022-12-18T00:10:11.768Z,56.00
2022-12-18T00:15:11.770Z,70.20
2022-12-18T00:20:11.726Z,45.10
2022-12-18T00:25:11.587Z,47.00
2022-12-18T00:30:12.406Z,45.40
2022-12-18T00:35:11.304Z,37.50
2022-12-18T00:40:12.410Z,35.40
2022-12-18T00:45:13.217Z,37.80
2022-12-18T00:50:11.580Z,37.50
2022-12-18T00:55:12.250Z,38.60
2022-12-18T01:00:14.943Z,37.60
2022-12-18T01:05:12.863Z,40.80
2022-12-18T01:10:12.934Z,35.80
2022-12-18T01:15:13.296Z,36.10
2022-12-18T01:20:12.549Z,46.30
2022-12-18T01:25:11.623Z,39.60
2022-12-18T01:30:11.960Z,39.80
2022-12-18T01:35:11.345Z,38.70
2022-12-18T01:40:12.107Z,38.70
2022-12-18T01:45:24.826Z,35.60
2022-12-18T01:50:14.829Z,38.10
2022-12-18T01:55:13.177Z,38.50
2022-12-18T02:00:14.697Z,38.70
2022-12-18T02:05:14.260Z,33.20
2022-12-18T02:10:17.578Z,36.80
2022-12-18T02:15:16.549Z,36.50
2022-12-18T02:20:16.562Z,37.30
2022-12-18T02:25:24.632Z,29.20
2022-12-18T02:30:11.880Z,41.50
2022-12-18T02:35:14.878Z,40.70
2022-12-18T02:40:13.846Z,27.80
2022-12-18T02:45:11.350Z,32.10
2022-12-18T02:50:20.035Z,32.20
2022-12-18T02:55:26.412Z,39.20
2022-12-18T03:00:15.327Z,45.20
2022-12-18T03:05:16.549Z,41.00
2022-12-18T03:10:16.767Z,36.20
2022-12-18T03:15:17.944Z,41.40
2022-12-18T03:20:14.884Z,30.60
2022-12-18T03:25:13.797Z,36.50
2022-12-18T03:30:13.984Z,31.10
2022-12-18T03:35:14.284Z,31.40
2022-12-18T03:40:11.733Z,33.10
2022-12-18T03:45:18.947Z,30.50
2022-12-18T03:50:16.504Z,32.80
2022-12-18T03:55:12.421Z,27.50
2022-12-18T04:00:13.588Z,36.80
2022-12-18T04:05:12.995Z,64.10
2022-12-18T04:10:12.799Z,31.50
2022-12-18T04:15:11.932Z,31.30
2022-12-18T04:20:11.318Z,36.60
2022-12-18T04:25:11.807Z,27.40
2022-12-18T04:30:11.668Z,27.00
2022-12-18T04:35:12.139Z,26.40
2022-12-18T04:40:12.475Z,24.70
2022-12-18T04:45:11.266Z,24.50
2022-12-18T04:50:11.130Z,22.30
2022-12-18T04:55:11.342Z,24.50
2022-12-18T05:00:12.664Z,26.20
2022-12-18T05:05:11.151Z,26.70
2022-12-18T05:10:11.520Z,25.40
2022-12-18T05:15:11.054Z,28.40
2022-12-18T05:20:11.211Z,28.40
2022-12-18T05:25:11.186Z,26.20
2022-12-18T05:30:12.225Z,24.80
2022-12-18T05:35:11.593Z,23.80
2022-12-18T05:40:12.535Z,26.50
2022-12-18T05:45:11.177Z,25.40
2022-12-18T05:50:11.272Z,25.50
2022-12-18T05:55:11.339Z,30.50
2022-12-18T06:00:11.816Z,29.50
2022-12-18T06:05:11.371Z,30.50
2022-12-18T06:10:11.650Z,33.40
2022-12-18T06:15:11.506Z,37.70
2022-12-18T06:20:11.323Z,34.80
2022-12-18T06:25:11.524Z,35.00
2022-12-18T06:30:12.640Z,39.70
2022-12-18T06:35:11.409Z,41.00
2022-12-18T06:40:11.051Z,41.80
2022-12-18T06:45:11.553Z,41.90
2022-12-18T06:50:12.031Z,42.80
2022-12-18T06:55:11.858Z,53.10
2022-12-18T07:00:11.522Z,46.90
2022-12-18T07:05:11.504Z,61.60
2022-12-18T07:10:11.187Z,64.20
2022-12-18T07:15:11.107Z,66.40
2022-12-18T07:20:11.491Z,67.50
2022-12-18T07:25:11.038Z,63.80
2022-12-18T07:30:11.409Z,68.90
2022-12-18T07:35:11.093Z,69.30
2022-12-18T07:40:11.706Z,67.20
2022-12-18T07:45:10.974Z,68.90
2022-12-18T07:50:11.257Z,76.40
2022-12-18T07:55:10.943Z,74.50
2022-12-18T08:00:12.805Z,68.70
2022-12-18T08:05:11.085Z,74.50
2022-12-18T08:10:10.955Z,77.10
2022-12-18T08:15:11.271Z,66.20
2022-12-18T08:20:14.937Z,96.30
2022-12-18T08:25:11.225Z,90.70
2022-12-18T08:30:11.446Z,67.70
2022-12-18T08:35:12.027Z,84.20
2022-12-18T08:40:11.270Z,66.10
2022-12-18T08:45:11.384Z,83.90
2022-12-18T08:50:12.304Z,128.20
2022-12-18T08:55:10.908Z,125.50
2022-12-18T09:00:13.220Z,91.00
2022-12-18T09:05:11.091Z,159.00
2022-12-18T09:10:10.933Z,65.30
2022-12-18T09:15:11.461Z,56.90
2022-12-18T09:20:11.167Z,54.10
2022-12-18T09:25:10.921Z,66.90
2022-12-18T09:30:11.132Z,106.40
2022-12-18T09:35:11.104Z,88.90
2022-12-18T09:40:13.960Z,89.60
2022-12-18T09:45:15.045Z,52.90
2022-12-18T09:50:22.302Z,139.00
2022-12-18T09:55:20.850Z,108.50
2022-12-18T10:00:16.577Z,68.40
2022-12-18T10:05:14.363Z,86.80
2022-12-18T10:10:27.145Z,169.60
2022-12-18T10:15:17.452Z,133.70
2022-12-18T10:20:15.160Z,59.80
2022-12-18T10:25:18.944Z,129.10
2022-12-18T10:30:14.899Z,54.20
2022-12-18T10:35:18.560Z,85.00
2022-12-18T10:40:19.906Z,61.20
2022-12-18T10:45:13.970Z,67.10
2022-12-18T10:50:26.183Z,92.80
2022-12-18T10:55:16.500Z,85.80
2022-12-18T11:00:23.552Z,114.30
2022-12-18T11:05:26.233Z,112.10
2022-12-18T11:10:17.946Z,86.60
2022-12-18T11:15:15.838Z,118.30
2022-12-18T11:20:23.736Z,84.80
2022-12-18T11:25:35.043Z,186.70
2022-12-18T11:30:22.345Z,161.50
2022-12-18T11:35:16.977Z,136.90
2022-12-18T11:40:15.891Z,102.10
2022-12-18T11:45:26.031Z,126.30
2022-12-18T11:50:14.553Z,152.10
2022-12-18T11:55:15.145Z,145.10
2022-12-18T12:00:15.199Z,91.00
2022-12-18T12:05:20.951Z,117.60
2022-12-18T12:10:26.059Z,153.00
2022-12-18T12:15:18.553Z,81.20
2022-12-18T12:20:18.727Z,134.90
2022-12-18T12:25:21.278Z,193.20
2022-12-18T12:30:18.453Z,88.40
2022-12-18T12:35:20.230Z,94.10
2022-12-18T12:40:48.379Z,79.10
2022-12-18T12:45:18.466Z,73.50
2022-12-18T12:50:16.542Z,75.80
2022-12-18T12:55:17.561Z,71.40
2022-12-18T13:00:14.803Z,76.80
2022-12-18T13:05:19.115Z,72.20
2022-12-18T13:10:14.416Z,73.50
2022-12-18T13:15:15.585Z,73.70
2022-12-18T13:20:14.089Z,76.50
2022-12-18T13:25:30.614Z,69.90
2022-12-18T13:30:30.424Z,71.40
2022-12-18T13:35:30.631Z,72.10
2022-12-18T13:40:30.418Z,69.00
2022-12-18T13:45:30.450Z,67.60
2022-12-18T13:50:22.035Z,68.60
2022-12-18T13:55:17.954Z,70.00
2022-12-18T14:00:24.564Z,71.40
2022-12-18T14:05:22.019Z,66.40
2022-12-18T14:10:42.249Z,62.10
2022-12-18T14:15:24.631Z,62.00
2022-12-18T14:20:14.200Z,64.90
2022-12-18T14:25:16.583Z,65.40
2022-12-18T14:30:25.230Z,65.10
2022-12-18T14:35:13.590Z,66.30
2022-12-18T14:40:13.406Z,66.60
2022-12-18T14:45:30.609Z,64.10
2022-12-18T14:50:14.170Z,72.80
2022-12-18T14:55:14.992Z,68.90
2022-12-18T15:00:17.303Z,71.70
2022-12-18T15:05:19.404Z,71.20
2022-12-18T15:10:13.183Z,72.80
2022-12-18T15:15:30.470Z,77.00
2022-12-18T15:20:10.973Z,75.90
2022-12-18T15:25:24.989Z,73.70
2022-12-18T15:30:19.259Z,73.60
2022-12-18T15:35:14.695Z,68.90
2022-12-18T15:40:13.201Z,74.60
2022-12-18T15:45:12.022Z,70.90
2022-12-18T15:50:10.821Z,69.30
2022-12-18T15:55:21.932Z,69.80
2022-12-18T16:00:12.674Z,73.30
2022-12-18T16:05:16.977Z,75.50
2022-12-18T16:10:11.051Z,82.60
2022-12-18T16:15:13.710Z,76.40
2022-12-18T16:20:14.965Z,71.50
2022-12-18T16:25:17.664Z,70.60
2022-12-18T16:30:13.340Z,69.80
2022-12-18T16:35:11.496Z,75.70
2022-12-18T16:40:13.526Z,67.90
2022-12-18T16:45:14.079Z,62.20
2022-12-18T16:50:11.285Z,62.40
2022-12-18T16:55:10.564Z,65.10
2022-12-18T17:00:12.499Z,59.90
2022-12-18T17:05:10.471Z,60.60
2022-12-18T17:10:10.450Z,57.40
2022-12-18T17:15:10.823Z,61.00
2022-12-18T17:20:10.822Z,54.00
2022-12-18T17:25:10.415Z,55.90
2022-12-18T17:30:11.730Z,54.90
2022-12-18T17:35:10.345Z,57.00
2022-12-18T17:40:10.738Z,53.50
2022-12-18T17:45:10.681Z,56.20
2022-12-18T17:50:10.544Z,58.10
2022-12-18T17:55:10.575Z,54.90
2022-12-18T18:00:11.994Z,57.40
2022-12-18T18:05:11.195Z,60.20
2022-12-18T18:10:10.540Z,58.50
2022-12-18T18:15:10.724Z,60.50
2022-12-18T18:20:11.020Z,64.80
2022-12-18T18:25:10.618Z,59.80
2022-12-18T18:30:11.743Z,54.10
2022-12-18T18:35:24.550Z,59.20
2022-12-18T18:40:11.286Z,62.20
2022-12-18T18:45:10.612Z,59.80
2022-12-18T18:50:12.091Z,55.30
2022-12-18T18:55:13.708Z,52.30
2022-12-18T19:00:12.989Z,53.80
2022-12-18T19:05:10.294Z,61.80
2022-12-18T19:10:10.366Z,62.10
2022-12-18T19:20:10.556Z,61.70
2022-12-18T19:25:10.274Z,56.30
2022-12-18T19:30:11.127Z,57.80
2022-12-18T19:35:10.521Z,57.70
2022-12-18T19:40:12.533Z,54.30
2022-12-18T19:45:10.512Z,55.20
2022-12-18T19:50:10.509Z,54.90
2022-12-18T19:55:10.296Z,55.00
2022-12-18T20:00:18.353Z,55.90
2022-12-18T20:05:12.798Z,52.30
2022-12-18T20:10:13.083Z,56.30
2022-12-18T20:15:10.897Z,52.00
2022-12-18T20:20:10.497Z,54.80
2022-12-18T20:25:10.458Z,52.20
2022-12-18T20:30:11.038Z,51.30
2022-12-18T20:35:10.675Z,46.50
2022-12-18T20:40:10.480Z,51.20
2022-12-18T20:45:10.481Z,50.10
2022-12-18T20:50:10.815Z,48.60
2022-12-18T20:55:10.517Z,47.00
2022-12-18T21:00:11.963Z,46.00
2022-12-18T21:05:10.269Z,52.60
2022-12-18T21:10:10.544Z,45.70
2022-12-18T21:15:10.345Z,44.70
2022-12-18T21:20:11.043Z,41.40
2022-12-18T21:25:10.195Z,40.30
2022-12-18T21:30:10.582Z,40.90
2022-12-18T21:35:10.736Z,44.40
2022-12-18T21:40:12.066Z,46.20
2022-12-18T21:45:11.237Z,39.40
2022-12-18T21:50:10.410Z,37.00
2022-12-18T21:55:10.386Z,42.90
2022-12-18T22:00:17.461Z,44.10
2022-12-18T22:05:10.295Z,40.90
2022-12-18T22:10:10.186Z,45.80
2022-12-18T22:15:12.415Z,46.50
2022-12-18T22:20:11.895Z,42.10
2022-12-18T22:25:10.484Z,48.20
2022-12-18T22:35:15.598Z,47.80
2022-12-18T22:40:23.540Z,47.50
2022-12-18T22:45:10.275Z,52.60
2022-12-18T22:50:12.687Z,40.80
2022-12-18T22:55:11.571Z,42.80
2022-12-18T23:00:10.664Z,45.20
2022-12-18T23:05:10.592Z,49.60
2022-12-18T23:10:10.347Z,44.00
2022-12-18T23:15:10.057Z,36.70
2022-12-18T23:20:10.808Z,42.00
2022-12-18T23:25:10.020Z,44.00
2022-12-18T23:30:10.995Z,41.20
2022-12-18T23:35:10.258Z,37.70
2022-12-18T23:40:10.412Z,36.30
2022-12-18T23:45:17.928Z,38.00
2022-12-18T23:50:10.327Z,35.30
2022-12-18T23:55:10.001Z,33.60
